Time;durP1;ratioP1;P1;durP2;ratioP2;P2;SDS_P1;SDS_P2;PMS_P1;PMS_P2;Temp;Humidity;BMP_temperature;BMP_pressure;BME280_temperature;BME280_humidity;BME280_pressure;Samples;Min_cycle;Max_cycle;Signal;HPM_P1;HPM_P2
2022/11/25 00:00:49;;;;;;;8.05;2.90;;;6.00;98.70;;;;;;5049655;28;20025;-73
2022/11/25 00:03:15;;;;;;;3.80;1.50;;;5.80;99.30;;;;;;5054092;28;20033;-72
2022/11/25 00:05:41;;;;;;;3.22;1.55;;;6.00;98.60;;;;;;5050755;28;20032;-72
2022/11/25 00:08:07;;;;;;;10.60;5.57;;;6.00;98.70;;;;;;5060043;28;20028;-73
2022/11/25 00:10:32;;;;;;;4.45;1.48;;;5.80;99.20;;;;;;5052943;28;20029;-72
2022/11/25 00:12:58;;;;;;;3.65;1.60;;;5.80;99.10;;;;;;5048504;28;20040;-73
2022/11/25 00:15:24;;;;;;;3.22;1.30;;;5.70;99.20;;;;;;5063526;28;20035;-73
2022/11/25 00:17:50;;;;;;;3.83;1.73;;;5.70;99.50;;;;;;5053516;28;20040;-73
2022/11/25 00:20:17;;;;;;;81.00;47.15;;;5.60;99.70;;;;;;5060383;28;20025;-72
2022/11/25 00:22:42;;;;;;;7.63;4.05;;;5.60;99.70;;;;;;5056583;28;20048;-72
2022/11/25 00:25:08;;;;;;;3.88;1.60;;;5.50;99.80;;;;;;5062206;28;20029;-72
2022/11/25 00:27:33;;;;;;;4.15;1.75;;;5.40;99.90;;;;;;5061673;28;20103;-73
2022/11/25 00:29:59;;;;;;;4.75;1.95;;;5.40;99.90;;;;;;5058601;28;20098;-72
2022/11/25 00:32:25;;;;;;;3.80;1.17;;;5.60;99.50;;;;;;5060686;28;20115;-73
2022/11/25 00:34:50;;;;;;;7.10;3.05;;;5.60;99.60;;;;;;5056543;28;20036;-72
2022/11/25 00:37:16;;;;;;;3.53;1.30;;;5.40;99.90;;;;;;5050836;28;20106;-72
2022/11/25 00:39:42;;;;;;;2.90;1.30;;;5.40;99.90;;;;;;5063403;28;20033;-73
2022/11/25 00:44:53;;;;;;;3.55;1.70;;;5.70;99.50;;;;;;5067184;28;20040;-72
2022/11/25 00:47:20;;;;;;;3.40;1.52;;;5.60;99.50;;;;;;5067658;28;20037;-72
2022/11/25 00:49:48;;;;;;;3.22;1.33;;;5.50;99.80;;;;;;5063334;28;20066;-72
2022/11/25 00:52:17;;;;;;;2.83;1.30;;;5.70;98.90;;;;;;5057644;28;20029;-73
2022/11/25 00:54:46;;;;;;;3.70;1.55;;;5.80;99.20;;;;;;5058553;28;20029;-72
2022/11/25 00:57:13;;;;;;;2.92;1.42;;;5.60;99.40;;;;;;5059987;28;20479;-73
2022/11/25 00:59:39;;;;;;;4.13;1.33;;;5.70;98.90;;;;;;5063645;28;20070;-73
2022/11/25 01:02:05;;;;;;;3.28;1.40;;;5.80;98.70;;;;;;5054289;28;20028;-72
2022/11/25 01:04:31;;;;;;;3.38;1.67;;;6.00;98.20;;;;;;5061371;28;20090;-73
2022/11/25 01:06:58;;;;;;;4.43;2.30;;;6.00;97.80;;;;;;5059107;28;20029;-72
2022/11/25 01:09:25;;;;;;;2.30;1.20;;;6.00;98.10;;;;;;5058587;28;20036;-73
2022/11/25 01:11:51;;;;;;;5.80;1.95;;;6.10;98.00;;;;;;5066383;28;20040;-72
2022/11/25 01:14:18;;;;;;;3.65;1.60;;;6.20;97.40;;;;;;5060121;28;20025;-73
2022/11/25 01:16:44;;;;;;;5.07;2.13;;;6.20;97.50;;;;;;5061956;28;20457;-73
2022/11/25 01:19:11;;;;;;;3.25;1.60;;;6.20;97.40;;;;;;5050688;28;20128;-73
2022/11/25 01:21:37;;;;;;;2.72;1.25;;;6.20;97.50;;;;;;5058888;28;20016;-72
2022/11/25 01:24:04;;;;;;;7.18;3.72;;;6.20;97.50;;;;;;5063226;28;20021;-72
2022/11/25 01:26:30;;;;;;;6.07;3.70;;;6.10;97.70;;;;;;5052133;28;20074;-72
2022/11/25 01:28:58;;;;;;;10.60;6.20;;;6.00;98.30;;;;;;5059986;28;20061;-72
2022/11/25 01:31:26;;;;;;;3.35;1.30;;;5.90;98.70;;;;;;5056311;28;20033;-72
2022/11/25 01:33:55;;;;;;;2.50;1.17;;;5.90;98.00;;;;;;5070961;28;20487;-73
2022/11/25 01:36:21;;;;;;;2.25;1.13;;;6.00;98.00;;;;;;5060451;28;20044;-73
2022/11/25 01:38:51;;;;;;;4.38;1.23;;;5.90;98.20;;;;;;5052451;28;20076;-73
2022/11/25 01:41:17;;;;;;;3.35;1.10;;;5.90;98.50;;;;;;5067152;28;20056;-72
2022/11/25 01:44:01;;;;;;;3.08;1.38;;;5.70;98.80;;;;;;5062014;28;20105;-72
2022/11/25 01:46:34;;;;;;;5.75;1.90;;;5.80;98.40;;;;;;5065301;28;20482;-72
2022/11/25 01:49:05;;;;;;;3.65;1.70;;;5.80;98.20;;;;;;5059466;28;20025;-73
2022/11/25 01:51:42;;;;;;;5.30;2.50;;;6.00;98.10;;;;;;5052912;28;20117;-73
2022/11/25 01:54:11;;;;;;;4.00;1.70;;;5.80;98.60;;;;;;5059818;28;20031;-73
2022/11/25 01:56:56;;;;;;;2.85;1.50;;;5.80;98.50;;;;;;5062302;28;20029;-72
2022/11/25 01:59:22;;;;;;;5.55;1.70;;;5.90;98.10;;;;;;5055560;28;20090;-72
2022/11/25 02:01:48;;;;;;;2.67;1.17;;;6.20;97.40;;;;;;5065233;28;20021;-72
2022/11/25 02:04:17;;;;;;;4.82;1.35;;;6.20;97.50;;;;;;5050016;28;20365;-72
2022/11/25 02:06:49;;;;;;;2.63;1.20;;;6.20;97.20;;;;;;5061889;28;20031;-72
2022/11/25 02:09:17;;;;;;;4.22;1.52;;;6.20;97.70;;;;;;5060435;28;20479;-72
2022/11/25 02:11:44;;;;;;;3.17;1.33;;;5.70;98.70;;;;;;5053318;28;20379;-73
2022/11/25 02:14:12;;;;;;;4.35;1.40;;;5.60;99.00;;;;;;5053703;28;20025;-72
2022/11/25 02:16:38;;;;;;;2.28;1.15;;;5.70;98.70;;;;;;5062761;28;20060;-72
2022/11/25 02:19:06;;;;;;;2.80;1.25;;;5.60;98.80;;;;;;5064141;28;20029;-72
2022/11/25 02:21:49;;;;;;;2.60;1.17;;;5.70;98.80;;;;;;5059180;28;20033;-72
2022/11/25 02:24:24;;;;;;;2.47;1.00;;;5.70;98.60;;;;;;5064209;28;20119;-72
2022/11/25 02:26:50;;;;;;;3.90;1.40;;;5.50;99.50;;;;;;5062794;28;20021;-73
2022/11/25 02:29:16;;;;;;;3.20;1.25;;;5.50;99.10;;;;;;5056801;28;20356;-72
2022/11/25 02:31:43;;;;;;;6.35;1.38;;;5.40;99.40;;;;;;5066381;28;20479;-73
2022/11/25 02:34:09;;;;;;;3.17;1.38;;;5.20;99.80;;;;;;5063930;28;20028;-72
2022/11/25 02:36:35;;;;;;;2.42;1.00;;;5.20;99.90;;;;;;5056473;28;20165;-72
2022/11/25 02:39:02;;;;;;;3.35;1.00;;;5.40;99.20;;;;;;5053234;28;20116;-72
2022/11/25 02:41:31;;;;;;;3.10;1.20;;;5.40;99.20;;;;;;5052422;28;20028;-72
2022/11/25 02:43:57;;;;;;;2.28;0.90;;;5.50;99.00;;;;;;5053446;28;20044;-73
2022/11/25 02:46:24;;;;;;;2.42;0.98;;;5.50;99.10;;;;;;5050319;28;20057;-72
2022/11/25 02:48:52;;;;;;;1.42;0.80;;;5.40;99.20;;;;;;5048909;28;20033;-73
2022/11/25 02:51:20;;;;;;;2.75;1.00;;;5.20;99.70;;;;;;5051423;28;20032;-72
2022/11/25 02:53:45;;;;;;;5.88;0.93;;;5.30;99.30;;;;;;5060755;28;20039;-72
2022/11/25 02:56:13;;;;;;;4.93;1.42;;;5.40;99.10;;;;;;5060268;28;20033;-72
2022/11/25 02:58:39;;;;;;;2.28;1.08;;;5.30;99.80;;;;;;5065148;28;20040;-72
2022/11/25 03:01:05;;;;;;;1.10;0.55;;;5.20;99.40;;;;;;5056842;28;20471;-72
2022/11/25 03:03:31;;;;;;;4.50;1.15;;;5.30;99.40;;;;;;5066792;28;20322;-73
2022/11/25 03:05:56;;;;;;;2.28;0.80;;;5.50;98.70;;;;;;5058556;28;20489;-72
2022/11/25 03:08:22;;;;;;;2.58;1.25;;;5.40;99.00;;;;;;5049430;28;20032;-72
2022/11/25 03:10:48;;;;;;;3.03;1.10;;;5.60;98.50;;;;;;5057856;28;20111;-73
2022/11/25 03:13:14;;;;;;;6.35;1.63;;;5.60;98.70;;;;;;5054046;28;20489;-72
2022/11/25 03:15:40;;;;;;;3.95;2.30;;;5.30;99.60;;;;;;5057699;28;20070;-72
2022/11/25 03:18:06;;;;;;;4.50;1.42;;;5.30;99.80;;;;;;5067280;28;20494;-73
2022/11/25 03:20:32;;;;;;;3.00;1.48;;;5.30;99.90;;;;;;5057209;28;20423;-73
2022/11/25 03:22:58;;;;;;;2.38;1.00;;;5.20;99.90;;;;;;5052480;28;20471;-73
2022/11/25 03:25:24;;;;;;;3.70;1.13;;;5.10;99.90;;;;;;5054733;28;20032;-72
2022/11/25 03:27:49;;;;;;;5.43;1.40;;;4.90;99.90;;;;;;5053152;28;20111;-72
2022/11/25 03:30:21;;;;;;;3.10;1.40;;;4.90;99.90;;;;;;5056105;28;20499;-73
2022/11/25 03:32:47;;;;;;;4.25;1.67;;;4.70;99.90;;;;;;5052515;28;20032;-72
2022/11/25 03:35:14;;;;;;;6.88;2.15;;;4.80;99.90;;;;;;5059631;28;20090;-73
2022/11/25 03:37:39;;;;;;;3.83;1.20;;;5.00;99.90;;;;;;5052414;28;20028;-72
2022/11/25 03:40:07;;;;;;;3.28;0.80;;;4.90;99.90;;;;;;5065879;28;20413;-73
2022/11/25 03:42:33;;;;;;;1.48;0.70;;;5.00;99.90;;;;;;5050357;28;20636;-72
2022/11/25 03:44:58;;;;;;;2.08;0.93;;;4.70;99.90;;;;;;5065072;28;20517;-72
2022/11/25 03:47:24;;;;;;;2.03;0.85;;;4.90;99.90;;;;;;5055183;28;20153;-72
2022/11/25 03:49:50;;;;;;;3.03;1.17;;;5.00;99.90;;;;;;5059963;28;20467;-72
2022/11/25 03:52:16;;;;;;;3.08;1.08;;;5.10;99.40;;;;;;5056588;28;20399;-73
2022/11/25 03:54:41;;;;;;;2.92;1.02;;;5.20;99.70;;;;;;5055537;28;20036;-72
2022/11/25 03:57:07;;;;;;;2.40;1.10;;;5.00;99.90;;;;;;5059873;28;20096;-72
2022/11/25 03:59:33;;;;;;;5.43;1.15;;;4.90;99.90;;;;;;5061503;28;20045;-72
2022/11/25 04:01:58;;;;;;;2.63;1.38;;;4.90;99.90;;;;;;5064050;28;20503;-71
2022/11/25 04:04:24;;;;;;;4.72;2.00;;;4.80;99.90;;;;;;5054533;28;20024;-71
2022/11/25 04:06:50;;;;;;;5.32;1.70;;;4.80;99.90;;;;;;5050661;28;20384;-71
2022/11/25 04:09:15;;;;;;;5.18;1.63;;;4.80;99.90;;;;;;5047387;28;20029;-71
2022/11/25 04:14:26;;;;;;;2.35;1.00;;;4.70;99.90;;;;;;5058145;28;20052;-71
2022/11/25 04:16:52;;;;;;;1.45;0.95;;;4.50;99.90;;;;;;5049093;28;20057;-71
2022/11/25 04:19:17;;;;;;;3.88;1.38;;;4.50;99.90;;;;;;5048352;28;20291;-71
2022/11/25 04:21:43;;;;;;;4.53;1.73;;;4.70;99.90;;;;;;5045831;28;20115;-71
2022/11/25 04:24:09;;;;;;;5.70;1.83;;;4.80;99.90;;;;;;5046152;28;20368;-71
2022/11/25 04:26:34;;;;;;;6.53;1.95;;;4.70;99.90;;;;;;5049535;28;20062;-71
2022/11/25 04:29:00;;;;;;;4.85;1.73;;;4.60;99.90;;;;;;5046326;28;20361;-71
2022/11/25 04:31:26;;;;;;;4.88;2.53;;;4.70;99.90;;;;;;5049764;28;25471;-71
2022/11/25 04:33:52;;;;;;;5.07;1.92;;;4.70;99.90;;;;;;5054650;28;20078;-72
2022/11/25 04:36:17;;;;;;;3.47;1.45;;;4.60;99.90;;;;;;5060325;28;20073;-72
2022/11/25 04:38:43;;;;;;;3.35;1.50;;;4.60;99.90;;;;;;5052009;28;20540;-72
2022/11/25 04:41:09;;;;;;;5.53;2.47;;;4.60;99.90;;;;;;5057206;28;20025;-72
2022/11/25 04:43:34;;;;;;;3.63;1.33;;;4.60;99.90;;;;;;5051727;28;20479;-72
2022/11/25 04:46:01;;;;;;;3.80;1.77;;;4.50;99.90;;;;;;5059712;28;20071;-71
2022/11/25 04:48:27;;;;;;;3.15;1.35;;;4.50;99.90;;;;;;5055147;28;20082;-71
2022/11/25 04:50:53;;;;;;;2.65;1.08;;;4.50;99.90;;;;;;5055470;28;20048;-71
2022/11/25 04:53:19;;;;;;;1.70;0.70;;;4.50;99.90;;;;;;5052719;28;20118;-72
2022/11/25 04:55:45;;;;;;;2.17;0.90;;;4.60;99.90;;;;;;5049983;28;20041;-71
2022/11/25 04:58:10;;;;;;;3.03;1.00;;;4.70;99.90;;;;;;5046115;28;20627;-71
2022/11/25 05:00:36;;;;;;;3.22;1.00;;;4.70;99.90;;;;;;5049889;28;20036;-71
2022/11/25 05:03:02;;;;;;;2.22;1.02;;;4.80;99.90;;;;;;5053961;28;20028;-71
2022/11/25 05:05:27;;;;;;;2.42;1.17;;;4.80;99.90;;;;;;5062135;28;20115;-71
2022/11/25 05:07:53;;;;;;;3.50;1.05;;;4.90;99.90;;;;;;5046562;28;20025;-71
2022/11/25 05:10:19;;;;;;;1.80;0.73;;;4.90;99.90;;;;;;5042245;28;20490;-72
2022/11/25 05:12:45;;;;;;;2.97;1.20;;;4.90;99.90;;;;;;5048579;28;20082;-71
2022/11/25 05:15:11;;;;;;;4.45;1.20;;;5.00;99.90;;;;;;5059541;28;20416;-71
2022/11/25 05:17:37;;;;;;;3.30;1.30;;;5.00;99.90;;;;;;5047795;28;20563;-71
2022/11/25 05:20:03;;;;;;;3.38;1.40;;;5.00;99.90;;;;;;5048175;28;20104;-72
2022/11/25 05:22:32;;;;;;;3.63;1.55;;;4.90;99.90;;;;;;5048437;28;20024;-72
2022/11/25 05:24:58;;;;;;;3.42;1.50;;;4.70;99.90;;;;;;5045083;28;20106;-71
2022/11/25 05:27:25;;;;;;;3.35;1.02;;;4.70;99.90;;;;;;5050765;28;20032;-72
2022/11/25 05:29:50;;;;;;;3.22;1.08;;;4.60;99.90;;;;;;5053636;28;20025;-71
2022/11/25 05:32:16;;;;;;;3.88;1.38;;;4.60;99.90;;;;;;5051068;28;20025;-71
2022/11/25 05:34:42;;;;;;;2.10;0.90;;;4.50;99.90;;;;;;5049243;28;20106;-72
2022/11/25 05:37:11;;;;;;;1.77;0.75;;;4.50;99.90;;;;;;5046025;28;20076;-72
2022/11/25 05:39:36;;;;;;;2.38;0.93;;;4.70;99.90;;;;;;5049288;28;20099;-71
2022/11/25 05:42:02;;;;;;;2.58;1.02;;;4.70;99.90;;;;;;5043170;28;20095;-71
2022/11/25 05:44:28;;;;;;;2.55;0.90;;;4.50;99.90;;;;;;5043138;28;20078;-71
2022/11/25 05:46:53;;;;;;;2.72;0.88;;;4.50;99.90;;;;;;5046569;28;20029;-71
2022/11/25 05:49:19;;;;;;;8.32;2.80;;;4.60;99.90;;;;;;5052914;28;20024;-71
2022/11/25 05:51:46;;;;;;;6.05;2.78;;;4.60;99.90;;;;;;5053841;28;20197;-71
2022/11/25 05:54:12;;;;;;;8.07;4.28;;;4.50;99.90;;;;;;5047316;28;20029;-71
2022/11/25 05:56:38;;;;;;;4.70;1.83;;;4.50;99.90;;;;;;5059347;28;20120;-71
2022/11/25 05:59:05;;;;;;;3.75;1.60;;;4.60;99.90;;;;;;5045386;28;20128;-71
2022/11/25 06:01:30;;;;;;;4.20;1.75;;;4.60;99.90;;;;;;5047591;28;20021;-71
2022/11/25 06:04:03;;;;;;;3.28;1.38;;;4.60;99.90;;;;;;5045174;28;20029;-72
2022/11/25 06:06:30;;;;;;;4.07;1.83;;;4.60;99.90;;;;;;5052233;28;20032;-71
2022/11/25 06:08:55;;;;;;;3.05;1.35;;;4.40;99.90;;;;;;5051466;28;20573;-71
2022/11/25 06:11:21;;;;;;;2.08;1.00;;;4.40;99.90;;;;;;5055525;28;20067;-71
2022/11/25 06:13:47;;;;;;;1.48;0.85;;;4.30;99.90;;;;;;5055043;28;20117;-71
2022/11/25 06:16:19;;;;;;;5.00;1.60;;;4.20;99.90;;;;;;5058977;28;20519;-71
2022/11/25 06:18:45;;;;;;;3.08;1.23;;;4.30;99.90;;;;;;5047161;28;20834;-71
2022/11/25 06:21:11;;;;;;;3.55;1.30;;;4.40;99.90;;;;;;5058664;28;20039;-71
2022/11/25 06:23:37;;;;;;;3.08;1.20;;;4.60;99.90;;;;;;5052935;28;20117;-71
2022/11/25 06:26:08;;;;;;;3.28;0.98;;;4.70;99.90;;;;;;5051769;28;20111;-72
2022/11/25 06:28:34;;;;;;;4.18;1.65;;;4.70;99.90;;;;;;5042970;28;20053;-71
2022/11/25 06:31:05;;;;;;;3.33;1.30;;;4.90;99.70;;;;;;5050945;28;20107;-71
2022/11/25 06:33:31;;;;;;;3.10;1.42;;;4.90;99.50;;;;;;5055954;28;20256;-72
2022/11/25 06:35:56;;;;;;;2.47;1.25;;;5.10;99.40;;;;;;5052200;28;20378;-71
2022/11/25 06:38:22;;;;;;;4.05;2.20;;;4.90;99.90;;;;;;5054175;28;20045;-71
2022/11/25 06:40:48;;;;;;;3.85;1.95;;;4.60;99.90;;;;;;5053740;28;20027;-71
2022/11/25 06:43:13;;;;;;;5.15;1.95;;;4.50;99.90;;;;;;5052436;28;20034;-71
2022/11/25 06:45:39;;;;;;;4.30;1.80;;;4.50;99.90;;;;;;5044591;28;20468;-72
2022/11/25 06:48:04;;;;;;;4.40;1.80;;;4.50;99.90;;;;;;5056715;28;20035;-72
2022/11/25 06:50:30;;;;;;;4.32;1.83;;;4.50;99.90;;;;;;5044007;28;20486;-72
2022/11/25 06:52:56;;;;;;;7.63;2.63;;;4.40;99.90;;;;;;5049748;28;20028;-71
2022/11/25 06:55:21;;;;;;;4.38;2.25;;;4.50;99.90;;;;;;5048598;28;20033;-71
2022/11/25 06:57:47;;;;;;;4.05;1.90;;;4.50;99.90;;;;;;5060152;28;20035;-71
2022/11/25 07:00:13;;;;;;;106.47;54.92;;;4.60;99.90;;;;;;5057273;28;20260;-71
2022/11/25 07:02:39;;;;;;;13.27;7.28;;;4.60;99.90;;;;;;5049415;28;20041;-71
2022/11/25 07:05:04;;;;;;;6.45;2.67;;;4.80;99.90;;;;;;5047358;28;20529;-72
2022/11/25 07:07:30;;;;;;;4.10;1.52;;;4.80;99.90;;;;;;5039821;28;20047;-71
2022/11/25 07:09:56;;;;;;;3.33;1.60;;;4.60;99.90;;;;;;5051269;28;20021;-71
2022/11/25 07:12:21;;;;;;;2.30;1.17;;;4.60;99.90;;;;;;5049539;28;20020;-71
2022/11/25 07:14:50;;;;;;;3.80;1.40;;;4.50;99.90;;;;;;5053706;28;20478;-72
2022/11/25 07:17:16;;;;;;;2.60;1.05;;;4.60;99.90;;;;;;5053292;28;20131;-71
2022/11/25 07:19:41;;;;;;;5.13;1.70;;;4.60;99.90;;;;;;5051063;28;20570;-71
2022/11/25 07:22:07;;;;;;;3.63;1.52;;;4.50;99.90;;;;;;5042706;28;20634;-71
2022/11/25 07:24:33;;;;;;;3.40;1.10;;;4.50;99.90;;;;;;5050457;28;20475;-71
2022/11/25 07:26:58;;;;;;;3.30;1.70;;;4.70;99.90;;;;;;5046870;28;20367;-71
2022/11/25 07:29:24;;;;;;;4.43;2.10;;;4.70;99.80;;;;;;5050957;28;20412;-71
2022/11/25 07:31:50;;;;;;;3.22;1.55;;;4.60;99.90;;;;;;5056694;28;20474;-71
2022/11/25 07:34:18;;;;;;;3.08;1.08;;;4.60;99.90;;;;;;5047509;28;20498;-71
2022/11/25 07:36:45;;;;;;;2.45;1.17;;;4.50;99.90;;;;;;5049182;28;20055;-71
2022/11/25 07:39:13;;;;;;;2.10;1.00;;;4.40;99.90;;;;;;5050388;28;20044;-71
2022/11/25 07:41:42;;;;;;;2.90;0.95;;;4.50;99.90;;;;;;5051383;28;20024;-72
2022/11/25 07:44:10;;;;;;;4.45;1.83;;;4.40;99.90;;;;;;5047793;28;20089;-71
2022/11/25 07:46:38;;;;;;;5.35;2.22;;;4.40;99.90;;;;;;5052009;28;20043;-73
2022/11/25 07:49:13;;;;;;;4.05;2.15;;;4.40;99.90;;;;;;5060702;28;20029;-71
2022/11/25 07:51:43;;;;;;;;;;;4.40;99.90;;;;;;5056789;28;20032;-72
2022/11/25 07:54:10;;;;;;;6.35;2.60;;;4.50;99.90;;;;;;5052251;28;19986;-70
2022/11/25 07:56:38;;;;;;;8.43;3.38;;;4.50;99.90;;;;;;5048679;28;20056;-72
2022/11/25 07:59:05;;;;;;;6.80;2.72;;;4.50;99.90;;;;;;5048754;28;20044;-74
2022/11/25 08:01:31;;;;;;;2.35;1.13;;;4.70;99.80;;;;;;5048233;28;20064;-74
2022/11/25 08:03:57;;;;;;;9.73;2.92;;;4.80;99.70;;;;;;5049934;28;20061;-74
2022/11/25 08:06:25;;;;;;;7.15;3.28;;;4.70;99.90;;;;;;5050466;28;20064;-74
2022/11/25 08:08:54;;;;;;;8.13;3.05;;;4.60;99.90;;;;;;5053672;28;20033;-73
2022/11/25 08:11:24;;;;;;;4.93;2.40;;;4.50;99.90;;;;;;5048037;28;20032;-72
2022/11/25 08:13:50;;;;;;;7.40;2.08;;;4.50;99.90;;;;;;5049881;28;20584;-73
2022/11/25 08:16:18;;;;;;;4.63;2.03;;;4.40;99.90;;;;;;5060111;28;20422;-73
2022/11/25 08:18:44;;;;;;;4.85;1.60;;;4.40;99.90;;;;;;5052728;28;20098;-73
2022/11/25 08:21:11;;;;;;;4.13;1.95;;;4.20;99.90;;;;;;5054977;28;20593;-75
2022/11/25 08:23:39;;;;;;;4.22;1.70;;;4.30;99.90;;;;;;5062198;28;20081;-73
2022/11/25 08:26:08;;;;;;;3.80;1.27;;;4.40;99.90;;;;;;5054177;28;20498;-73
2022/11/25 08:28:35;;;;;;;3.70;1.60;;;4.50;99.90;;;;;;5057169;28;20657;-74
2022/11/25 08:31:13;;;;;;;4.82;2.38;;;4.50;99.90;;;;;;5040917;28;20387;-73
2022/11/25 08:33:39;;;;;;;4.35;1.17;;;4.50;99.90;;;;;;5058721;28;20036;-74
2022/11/25 08:36:05;;;;;;;15.90;3.58;;;4.30;99.90;;;;;;5054886;28;20038;-74
2022/11/25 08:38:31;;;;;;;4.82;1.45;;;4.20;99.90;;;;;;5053746;28;20076;-73
2022/11/25 08:40:57;;;;;;;3.08;1.13;;;4.30;99.90;;;;;;5050857;28;20061;-74
2022/11/25 08:43:24;;;;;;;2.72;1.10;;;4.40;99.90;;;;;;5057878;28;20468;-73
2022/11/25 08:45:50;;;;;;;3.03;1.73;;;4.40;99.90;;;;;;5067228;28;20031;-73
2022/11/25 08:48:18;;;;;;;10.95;6.45;;;4.40;99.90;;;;;;5063167;28;20055;-73
2022/11/25 08:50:46;;;;;;;5.50;2.50;;;4.40;99.90;;;;;;5050039;28;20060;-72
2022/11/25 08:53:13;;;;;;;4.18;1.50;;;4.40;99.90;;;;;;5057894;28;20044;-72
2022/11/25 08:55:39;;;;;;;7.68;2.83;;;4.10;99.90;;;;;;5065763;28;20032;-72
2022/11/25 08:58:08;;;;;;;5.60;1.60;;;4.20;99.90;;;;;;5063135;28;20517;-72
2022/11/25 09:00:35;;;;;;;7.00;2.28;;;4.20;99.90;;;;;;5063516;28;20055;-72
2022/11/25 09:03:01;;;;;;;2.10;1.10;;;4.30;99.90;;;;;;5061094;28;20952;-71
2022/11/25 09:05:27;;;;;;;4.80;1.45;;;4.40;99.90;;;;;;5066529;28;20056;-71
2022/11/25 09:07:53;;;;;;;6.68;2.35;;;4.40;99.90;;;;;;5056901;28;20055;-71
2022/11/25 09:10:18;;;;;;;6.95;3.42;;;4.50;99.90;;;;;;5053903;28;20063;-70
2022/11/25 09:12:44;;;;;;;9.77;4.40;;;4.50;99.90;;;;;;5050040;28;20025;-71
2022/11/25 09:15:10;;;;;;;3.67;1.67;;;4.50;99.90;;;;;;5051522;28;20082;-71
2022/11/25 09:17:36;;;;;;;3.67;1.50;;;4.50;99.90;;;;;;5046668;28;20066;-71
2022/11/25 09:20:05;;;;;;;3.08;1.27;;;4.60;99.90;;;;;;5058904;28;20040;-71
2022/11/25 09:22:31;;;;;;;2.67;1.20;;;4.50;99.90;;;;;;5044794;28;20060;-73
2022/11/25 09:24:57;;;;;;;2.75;1.08;;;4.50;99.90;;;;;;5054249;28;20059;-73
2022/11/25 09:27:23;;;;;;;4.75;1.73;;;4.50;99.90;;;;;;5053762;28;20028;-73
2022/11/25 09:29:48;;;;;;;2.42;1.20;;;4.60;99.90;;;;;;5060156;28;20032;-73
2022/11/25 09:32:14;;;;;;;5.32;1.60;;;4.60;99.90;;;;;;5061274;28;20032;-73
2022/11/25 09:34:40;;;;;;;3.08;1.48;;;4.70;99.90;;;;;;5060581;28;20557;-71
2022/11/25 09:37:05;;;;;;;3.75;1.60;;;4.90;99.60;;;;;;5061126;28;20056;-72
2022/11/25 09:39:33;;;;;;;4.70;1.73;;;4.90;99.60;;;;;;5058012;28;20041;-72
2022/11/25 09:48:22;;;;;;;6.72;2.28;;;5.00;99.60;;;;;;5053293;28;20080;-72
2022/11/25 09:51:15;;;;;;;3.47;1.60;;;5.00;99.70;;;;;;5059089;28;20423;-73
2022/11/25 09:53:46;;;;;;;3.72;1.30;;;4.90;99.90;;;;;;5061994;28;20718;-73
2022/11/25 09:56:37;;;;;;;2.85;1.15;;;4.90;99.90;;;;;;5056686;28;20118;-73
2022/11/25 09:59:30;;;;;;;3.70;1.10;;;4.90;99.70;;;;;;5059743;28;20059;-73
2022/11/25 10:02:03;;;;;;;2.60;1.33;;;4.90;99.80;;;;;;5053310;28;20052;-73
2022/11/25 10:04:45;;;;;;;3.60;1.42;;;4.90;99.90;;;;;;5055680;28;20115;-73
2022/11/25 10:07:20;;;;;;;3.00;1.48;;;4.90;99.90;;;;;;5060620;28;20037;-72
2022/11/25 10:09:46;;;;;;;4.95;1.42;;;4.80;99.90;;;;;;5057780;28;20040;-72
2022/11/25 10:12:24;;;;;;;4.90;2.30;;;5.00;99.90;;;;;;5052635;28;20028;-72
2022/11/25 10:15:05;;;;;;;6.18;2.13;;;5.20;99.90;;;;;;5056651;28;20039;-73
2022/11/25 10:17:50;;;;;;;4.53;1.95;;;5.30;99.90;;;;;;5069362;28;20207;-72
2022/11/25 10:20:27;;;;;;;3.58;1.35;;;5.30;99.90;;;;;;5066546;28;20461;-73
2022/11/25 10:23:03;;;;;;;4.22;1.73;;;5.30;99.90;;;;;;5062452;28;20091;-74
2022/11/25 10:25:36;;;;;;;4.10;1.67;;;5.30;99.90;;;;;;5055994;28;20426;-74
2022/11/25 10:28:03;;;;;;;2.50;1.35;;;5.40;99.90;;;;;;5057892;28;20028;-74
2022/11/25 10:30:59;;;;;;;1.75;0.88;;;5.50;99.90;;;;;;5050331;28;20151;-73
2022/11/25 10:33:38;;;;;;;4.30;1.33;;;5.70;99.90;;;;;;5058545;28;20383;-74
2022/11/25 10:36:14;;;;;;;2.80;1.63;;;5.80;99.80;;;;;;5063625;28;20055;-72
2022/11/25 10:39:00;;;;;;;3.10;1.48;;;5.90;99.90;;;;;;5061229;28;20708;-73
2022/11/25 10:41:32;;;;;;;4.65;1.98;;;6.10;99.90;;;;;;5064864;28;20032;-73
2022/11/25 10:43:57;;;;;;;4.50;1.77;;;6.20;99.40;;;;;;5064431;28;20028;-73
2022/11/25 10:46:47;;;;;;;6.50;1.70;;;6.40;99.90;;;;;;5063270;28;20866;-73
2022/11/25 10:49:27;;;;;;;4.82;1.50;;;6.30;99.20;;;;;;5056087;28;20028;-73
2022/11/25 10:51:56;;;;;;;4.50;1.65;;;6.50;99.10;;;;;;5047500;28;20098;-73
2022/11/25 10:54:25;;;;;;;13.57;4.00;;;6.60;99.10;;;;;;5049993;28;20112;-74
2022/11/25 10:56:57;;;;;;;5.00;2.75;;;6.70;99.00;;;;;;5049001;28;20032;-74
2022/11/25 10:59:24;;;;;;;6.35;2.38;;;6.80;98.90;;;;;;5049157;28;20029;-73
2022/11/25 11:01:52;;;;;;;5.35;2.30;;;6.90;98.80;;;;;;5043302;28;20028;-72
2022/11/25 11:04:18;;;;;;;4.88;2.35;;;7.10;98.70;;;;;;5042390;28;20025;-73
2022/11/25 11:06:46;;;;;;;5.35;2.13;;;7.50;98.80;;;;;;5055075;28;20031;-73
2022/11/25 11:09:33;;;;;;;5.28;2.45;;;7.60;98.40;;;;;;5054872;28;20297;-73
2022/11/25 11:12:26;;;;;;;4.28;2.05;;;7.90;98.10;;;;;;5047047;28;20029;-71
2022/11/25 11:15:12;;;;;;;9.05;4.43;;;7.80;97.60;;;;;;5052859;28;20025;-72
2022/11/25 11:17:38;;;;;;;5.38;3.55;;;7.70;97.80;;;;;;5061139;28;20052;-72
2022/11/25 11:20:06;;;;;;;4.57;2.20;;;7.70;98.20;;;;;;5060493;28;20037;-71
2022/11/25 11:22:34;;;;;;;4.93;2.00;;;7.90;98.50;;;;;;5061638;28;20043;-71
2022/11/25 11:25:18;;;;;;;4.95;2.00;;;7.90;97.90;;;;;;5054413;28;20470;-71
2022/11/25 11:27:44;;;;;;;4.95;1.50;;;7.80;97.80;;;;;;5055543;28;20043;-71
2022/11/25 11:30:19;;;;;;;4.93;2.05;;;7.90;97.80;;;;;;5061459;28;20036;-71
2022/11/25 11:32:56;;;;;;;9.82;3.33;;;8.00;97.00;;;;;;5059279;28;20482;-71
2022/11/25 11:35:25;;;;;;;3.95;2.00;;;8.20;97.10;;;;;;5063165;28;20098;-71
2022/11/25 11:37:53;;;;;;;4.50;2.17;;;8.40;98.00;;;;;;5061961;28;20085;-71
2022/11/25 11:40:38;;;;;;;4.95;2.38;;;8.50;96.70;;;;;;5052691;28;20025;-72
2022/11/25 11:43:04;;;;;;;8.90;4.90;;;8.70;97.00;;;;;;5054695;28;20025;-71
2022/11/25 11:45:40;;;;;;;7.68;3.05;;;8.90;96.50;;;;;;5054358;28;20029;-71
2022/11/25 11:48:12;;;;;;;5.88;2.88;;;8.90;96.70;;;;;;5050869;28;20104;-71
2022/11/25 11:50:46;;;;;;;5.55;2.60;;;9.00;96.50;;;;;;5051166;28;20036;-72
2022/11/25 11:54:01;;;;;;;7.45;2.60;;;9.00;96.60;;;;;;5055045;28;20716;-70
2022/11/25 11:56:38;;;;;;;5.63;2.03;;;9.00;95.70;;;;;;5027423;28;20037;-70
2022/11/25 11:59:07;;;;;;;5.30;2.13;;;8.90;95.90;;;;;;5056322;28;20364;-71
2022/11/25 12:01:38;;;;;;;4.80;2.33;;;8.90;96.20;;;;;;5050218;28;20036;-71
2022/11/25 12:04:29;;;;;;;6.40;2.30;;;8.90;96.30;;;;;;5051667;28;20029;-71
2022/11/25 12:07:25;;;;;;;6.35;3.58;;;8.80;96.70;;;;;;5046225;28;20561;-70
2022/11/25 12:10:14;;;;;;;11.25;6.30;;;8.90;96.40;;;;;;5042723;28;20953;-70
2022/11/25 12:13:05;;;;;;;16.17;10.65;;;8.80;96.40;;;;;;5048614;28;20045;-71
2022/11/25 12:15:57;;;;;;;16.88;10.00;;;8.90;96.40;;;;;;5049335;28;20028;-71
2022/11/25 12:18:51;;;;;;;22.55;15.57;;;8.90;96.50;;;;;;5050236;28;20036;-72
2022/11/25 12:21:36;;;;;;;9.10;6.72;;;9.20;96.90;;;;;;5053747;28;20036;-71
2022/11/25 12:24:23;;;;;;;12.07;9.35;;;9.50;96.00;;;;;;5044349;28;20032;-72
2022/11/25 12:26:52;;;;;;;9.02;4.25;;;9.50;96.00;;;;;;5047838;28;20069;-72
2022/11/25 12:29:43;;;;;;;6.85;2.70;;;9.60;96.20;;;;;;5046921;28;20024;-72
2022/11/25 12:32:48;;;;;;;5.60;3.10;;;9.70;95.70;;;;;;5045260;28;20155;-72
2022/11/25 12:35:38;;;;;;;5.97;2.78;;;9.90;95.80;;;;;;5047536;28;20033;-72
2022/11/25 12:38:23;;;;;;;7.20;3.00;;;9.80;95.30;;;;;;5052228;28;20030;-72
2022/11/25 12:41:07;;;;;;;8.27;4.68;;;9.70;95.10;;;;;;5046962;28;20017;-72
2022/11/25 12:43:53;;;;;;;44.60;23.88;;;9.80;95.60;;;;;;5048428;28;20036;-71
2022/11/25 12:46:45;;;;;;;55.28;30.35;;;9.70;95.20;;;;;;5056223;28;20111;-72
2022/11/25 12:49:26;;;;;;;26.98;19.02;;;9.60;95.50;;;;;;5056835;28;20609;-72
2022/11/25 12:52:25;;;;;;;8.95;5.32;;;9.50;95.60;;;;;;5057160;28;20043;-72
2022/11/25 12:55:12;;;;;;;11.18;5.28;;;9.20;96.20;;;;;;5058939;28;20479;-72
2022/11/25 12:57:55;;;;;;;15.18;8.05;;;9.70;95.80;;;;;;5059149;28;20482;-72
2022/11/25 13:00:34;;;;;;;9.10;5.20;;;9.70;96.00;;;;;;5057439;28;20483;-71
2022/11/25 13:03:18;;;;;;;11.43;5.78;;;9.60;95.30;;;;;;5052372;28;20024;-72
2022/11/25 13:06:24;;;;;;;6.18;2.70;;;9.40;95.70;;;;;;5073777;28;20052;-72
2022/11/25 13:09:02;;;;;;;5.68;1.98;;;9.40;96.00;;;;;;5054727;28;20158;-71
2022/11/25 13:11:51;;;;;;;4.95;2.17;;;9.30;95.70;;;;;;5059025;28;20033;-72
2022/11/25 13:14:35;;;;;;;8.88;2.75;;;9.10;95.80;;;;;;5053718;28;20040;-72
2022/11/25 13:17:01;;;;;;;4.57;1.90;;;8.90;96.00;;;;;;5038746;28;20140;-72
2022/11/25 13:19:27;;;;;;;4.53;1.85;;;9.00;96.30;;;;;;5060249;28;21381;-72
2022/11/25 13:21:59;;;;;;;5.43;2.10;;;9.00;96.10;;;;;;5054386;28;20054;-72